createdAt,value
2022-09-15T00:00:34.710Z,100057.56
2022-09-15T00:01:19.533Z,100055.00
2022-09-15T00:02:15.839Z,100053.25
2022-09-15T00:02:54.570Z,100064.00
2022-09-15T00:03:26.088Z,100056.06
2022-09-15T00:04:00.649Z,100065.00
2022-09-15T00:04:32.308Z,100069.38
2022-09-15T00:07:05.535Z,100066.94
2022-09-15T00:07:57.141Z,100068.88
2022-09-15T00:08:31.027Z,100070.00
2022-09-15T00:09:09.818Z,100066.56
2022-09-15T00:09:43.862Z,100067.56
2022-09-15T00:10:27.364Z,100063.75
2022-09-15T00:11:20.738Z,100070.88
2022-09-15T00:11:42.860Z,100072.59
2022-09-15T00:12:05.024Z,100068.88
2022-09-15T00:12:28.241Z,100074.28
2022-09-15T00:12:50.138Z,100072.44
2022-09-15T00:13:11.745Z,100071.72
2022-09-15T00:13:34.295Z,100072.59
2022-09-15T00:14:00.464Z,100073.44
2022-09-15T00:14:22.064Z,100073.19
2022-09-15T00:14:43.685Z,100074.06
2022-09-15T00:15:06.576Z,100071.25
2022-09-15T00:15:31.426Z,100035.84
2022-09-15T00:15:53.543Z,100066.94
2022-09-15T00:16:16.234Z,100073.44
2022-09-15T00:16:39.491Z,100071.47
2022-09-15T00:17:01.261Z,100066.09
2022-09-15T00:17:23.000Z,100067.81
2022-09-15T00:17:49.681Z,100077.97
2022-09-15T00:18:12.752Z,100068.06
2022-09-15T00:18:36.260Z,100071.84
2022-09-15T00:18:59.268Z,100065.94
2022-09-15T00:19:20.829Z,100076.47
2022-09-15T00:19:42.515Z,100065.59
2022-09-15T00:20:07.310Z,100068.16
2022-09-15T00:20:28.997Z,100074.53
2022-09-15T00:20:50.763Z,100073.44
2022-09-15T00:21:14.683Z,100048.59
2022-09-15T00:21:38.772Z,100066.09
2022-09-15T00:22:01.296Z,100049.28
2022-09-15T00:22:24.138Z,100075.03
2022-09-15T00:22:46.368Z,100068.66
2022-09-15T00:23:08.326Z,100076.00
2022-09-15T00:23:30.974Z,100064.00
2022-09-15T00:23:52.925Z,100058.22
2022-09-15T00:24:14.576Z,100071.72
2022-09-15T00:24:36.716Z,100057.75
2022-09-15T00:24:58.392Z,100069.88
2022-09-15T00:25:21.186Z,100062.91
2022-09-15T00:25:44.720Z,100057.38
2022-09-15T00:26:08.005Z,100075.88
2022-09-15T00:26:30.912Z,100059.84
2022-09-15T00:26:53.807Z,100067.19
2022-09-15T00:27:15.847Z,100068.88
2022-09-15T00:27:37.563Z,100053.97
2022-09-15T00:27:59.472Z,100074.16
2022-09-15T00:28:23.495Z,100040.16
2022-09-15T00:28:45.422Z,100060.97
2022-09-15T00:29:07.035Z,100059.47
2022-09-15T00:29:28.753Z,100069.13
2022-09-15T00:43:26.503Z,100068.38
2022-09-15T00:56:20.528Z,100065.03
2022-09-15T00:56:44.231Z,100067.38
2022-09-15T00:57:11.542Z,100059.78
2022-09-15T00:57:37.413Z,100071.91
2022-09-15T00:58:02.642Z,100058.28
2022-09-15T00:58:30.004Z,100072.88
2022-09-15T00:58:57.407Z,100066.00
2022-09-15T00:59:22.627Z,100069.66
2022-09-15T00:59:45.648Z,100074.59
2022-09-15T01:00:11.575Z,100072.75
2022-09-15T01:00:34.120Z,100069.56
2022-09-15T01:00:58.973Z,100076.41
2022-09-15T01:01:21.170Z,100076.16
2022-09-15T01:01:45.874Z,100070.94
2022-09-15T01:02:14.183Z,100072.00
2022-09-15T01:02:37.462Z,100074.47
2022-09-15T01:02:59.784Z,100077.03
2022-09-15T01:03:21.877Z,100053.03
2022-09-15T01:03:43.588Z,100074.34
2022-09-15T01:04:06.276Z,100074.47
2022-09-15T01:04:27.937Z,100072.41
2022-09-15T01:04:57.449Z,100071.53
2022-09-15T01:05:23.796Z,100075.81
2022-09-15T01:05:53.749Z,100060.38
2022-09-15T01:06:21.754Z,100048.59
2022-09-15T01:06:50.560Z,100070.78
2022-09-15T01:07:15.956Z,100070.78
2022-09-15T01:07:44.408Z,100079.25
2022-09-15T01:08:10.630Z,100072.28
2022-09-15T01:08:36.113Z,100078.50
2022-09-15T01:09:03.280Z,100066.16
2022-09-15T01:09:29.845Z,100078.28
2022-09-15T01:09:54.089Z,100079.16
2022-09-15T01:10:20.808Z,100073.97
2022-09-15T01:10:42.453Z,100077.31
2022-09-15T01:11:04.993Z,100075.59
2022-09-15T01:11:28.755Z,100074.84
2022-09-15T01:11:50.897Z,100080.22
2022-09-15T01:12:13.193Z,100074.47
2022-09-15T01:12:36.461Z,100083.66
2022-09-15T01:13:01.427Z,100076.06
2022-09-15T01:13:23.002Z,100077.78
2022-09-15T01:13:45.073Z,100071.16
2022-09-15T01:14:07.936Z,100087.44
2022-09-15T01:14:29.770Z,100084.88
2022-09-15T01:14:52.761Z,100083.28
2022-09-15T01:15:15.295Z,100086.56
2022-09-15T01:15:43.949Z,100084.88
2022-09-15T01:16:14.889Z,100075.66
2022-09-15T01:16:51.250Z,100088.91
2022-09-15T01:17:25.369Z,100094.28
2022-09-15T01:18:00.521Z,100078.13
2022-09-15T01:18:31.262Z,100086.31
2022-09-15T01:19:03.219Z,100088.91
2022-09-15T01:20:00.559Z,100090.84
2022-09-15T01:20:54.423Z,100095.34
2022-09-15T01:21:28.422Z,100087.19
2022-09-15T01:21:58.609Z,100092.56
2022-09-15T01:22:35.832Z,100097.94
2022-09-15T01:23:12.995Z,100098.03
2022-09-15T01:24:11.016Z,100082.91
2022-09-15T01:24:55.201Z,100090.13
2022-09-15T01:25:31.461Z,100092.81
2022-09-15T01:26:16.805Z,100092.06
2022-09-15T01:26:58.976Z,100096.34
2022-09-15T01:28:02.101Z,100090.22
2022-09-15T01:29:01.513Z,100093.03
2022-09-15T01:30:08.046Z,100087.88
2022-09-15T01:30:59.485Z,100088.09
2022-09-15T01:32:04.714Z,100090.78
2022-09-15T01:32:58.099Z,100087.28
2022-09-15T01:33:38.712Z,100082.72
2022-09-15T01:34:11.756Z,100088.25
2022-09-15T01:35:20.479Z,100082.97
2022-09-15T01:36:18.984Z,100082.97
2022-09-15T01:37:54.966Z,100086.00
2022-09-15T01:38:44.569Z,100085.50
2022-09-15T01:39:24.632Z,100078.28
2022-09-15T01:40:15.151Z,100083.66
2022-09-15T01:40:58.167Z,100083.16
2022-09-15T01:41:39.873Z,100077.88
2022-09-15T01:42:26.359Z,100081.22
2022-09-15T01:42:53.468Z,100075.09
2022-09-15T01:43:22.682Z,100087.44
2022-09-15T01:44:11.796Z,100075.94
2022-09-15T01:44:43.310Z,100077.78
2022-09-15T01:45:17.402Z,100084.63
2022-09-15T01:45:58.594Z,100082.81
2022-09-15T01:46:42.636Z,100084.41
2022-09-15T01:47:15.415Z,100068.84
2022-09-15T01:47:52.892Z,100083.41
2022-09-15T01:48:18.852Z,100084.53
2022-09-15T01:48:42.084Z,100079.34
2022-09-15T01:49:07.213Z,100085.59
2022-09-15T01:49:35.291Z,100082.19
2022-09-15T01:50:01.421Z,100063.50
2022-09-15T01:50:27.552Z,100074.22
2022-09-15T01:50:54.043Z,100079.34
2022-09-15T01:51:16.708Z,100085.59
2022-09-15T01:51:39.714Z,100081.22
2022-09-15T01:52:02.306Z,100081.94
2022-09-15T01:52:25.727Z,100082.81
2022-09-15T01:52:50.541Z,100085.59
2022-09-15T01:53:17.829Z,100077.88
2022-09-15T01:53:41.629Z,100079.59
2022-09-15T01:54:06.426Z,100078.75
2022-09-15T01:54:33.949Z,100082.63
2022-09-15T01:55:00.403Z,100079.84
2022-09-15T01:55:26.381Z,100075.31
2022-09-15T01:55:53.781Z,100080.72
2022-09-15T01:56:15.523Z,100088.78
2022-09-15T01:56:38.745Z,100077.25
2022-09-15T01:57:01.985Z,100081.69
2022-09-15T01:57:23.775Z,100078.75
2022-09-15T01:57:45.594Z,100081.44
2022-09-15T01:58:08.636Z,100082.28
2022-09-15T01:58:31.374Z,100081.31
2022-09-15T01:58:53.968Z,100081.22
2022-09-15T01:59:15.889Z,100060.81
2022-09-15T01:59:37.759Z,100084.00
2022-09-15T02:00:00.272Z,100084.75
2022-09-15T02:00:24.473Z,100071.78
2022-09-15T02:00:51.177Z,100079.34
2022-09-15T02:01:17.140Z,100078.53
2022-09-15T02:01:49.619Z,100084.00
2022-09-15T02:02:14.641Z,100080.34
2022-09-15T02:02:40.483Z,100078.53
2022-09-15T02:03:09.427Z,100080.34
2022-09-15T02:03:38.059Z,100076.66
2022-09-15T02:04:06.641Z,100080.13
2022-09-15T02:04:33.773Z,100081.72
2022-09-15T02:05:00.961Z,100071.44
2022-09-15T02:05:30.077Z,100076.56
2022-09-15T02:06:02.651Z,100079.16
2022-09-15T02:06:36.628Z,100081.72
2022-09-15T02:07:07.316Z,100078.28
2022-09-15T02:07:36.326Z,100065.19
2022-09-15T02:08:05.317Z,100075.34
2022-09-15T02:08:33.605Z,100061.88
2022-09-15T02:09:02.673Z,100077.19
2022-09-15T02:09:30.663Z,100075.25
2022-09-15T02:09:58.796Z,100061.41
2022-09-15T02:10:27.156Z,100077.81
2022-09-15T02:10:58.805Z,100072.31
2022-09-15T02:11:26.464Z,100074.13
2022-09-15T02:11:56.964Z,100071.69
2022-09-15T02:12:29.087Z,100072.66
2022-09-15T02:12:58.475Z,100061.19
2022-09-15T02:13:27.922Z,100071.69
2022-09-15T02:13:59.709Z,100063.88
2022-09-15T02:14:31.291Z,100067.53
2022-09-15T02:14:57.261Z,100066.91
2022-09-15T02:15:29.020Z,100067.78
2022-09-15T02:15:54.857Z,100066.25
2022-09-15T02:16:20.221Z,100054.44
2022-09-15T02:16:45.864Z,100064.06
2022-09-15T02:17:15.446Z,100066.00
2022-09-15T02:17:43.670Z,100064.16
2022-09-15T02:18:08.446Z,100060.81
2022-09-15T02:18:35.812Z,100065.34
2022-09-15T02:19:09.754Z,100032.59
2022-09-15T02:19:36.002Z,100069.97
2022-09-15T02:20:07.041Z,100063.84
2022-09-15T02:20:40.061Z,100068.59
2022-09-15T02:21:10.248Z,100063.09
2022-09-15T02:21:37.231Z,100071.28
2022-09-15T02:22:07.676Z,100077.63
2022-09-15T02:22:34.593Z,100068.72
2022-09-15T02:23:00.849Z,100076.66
2022-09-15T02:23:27.100Z,100074.81
2022-09-15T02:23:54.918Z,100050.91
2022-09-15T02:24:19.813Z,100080.09
2022-09-15T02:24:49.912Z,100072.53
2022-09-15T02:25:17.419Z,100073.28
2022-09-15T02:25:41.948Z,100076.09
2022-09-15T02:26:08.950Z,100064.81
2022-09-15T02:26:32.921Z,100074.16
2022-09-15T02:26:56.161Z,100066.31
2022-09-15T02:27:22.986Z,100071.25
2022-09-15T02:27:49.733Z,100074.81
2022-09-15T02:28:15.511Z,100074.56
2022-09-15T02:28:41.033Z,100062.75
2022-09-15T02:29:06.969Z,100072.00
2022-09-15T02:29:33.644Z,100070.25
2022-09-15T02:30:03.057Z,100073.81
2022-09-15T02:30:28.142Z,100037.78
2022-09-15T02:30:53.493Z,100071.78
2022-09-15T02:31:17.912Z,100077.25
2022-09-15T02:31:42.619Z,100074.69
2022-09-15T02:32:07.532Z,100072.84
2022-09-15T02:32:30.955Z,100076.41
2022-09-15T02:32:56.612Z,100078.22
2022-09-15T02:33:24.080Z,100067.88
2022-09-15T02:33:49.635Z,100054.94
2022-09-15T02:34:17.261Z,100079.84
2022-09-15T02:34:43.677Z,100077.03
2022-09-15T02:35:09.027Z,100071.53
2022-09-15T02:35:34.783Z,100072.50
2022-09-15T02:36:07.152Z,100073.97
2022-09-15T02:36:33.705Z,100073.00
2022-09-15T02:36:56.469Z,100077.44
2022-09-15T02:37:21.220Z,100061.75
2022-09-15T02:37:44.293Z,100072.81
2022-09-15T02:38:09.042Z,100078.38
2022-09-15T02:38:35.187Z,100080.00
2022-09-15T02:39:02.253Z,100074.63
2022-09-15T02:39:30.068Z,100077.31
2022-09-15T02:39:56.729Z,100080.88
2022-09-15T02:40:19.471Z,99998.47
2022-09-15T02:40:46.861Z,100081.72
2022-09-15T02:41:08.630Z,100082.69
2022-09-15T02:41:30.513Z,100077.31
2022-09-15T02:41:52.432Z,100075.59
2022-09-15T02:42:24.569Z,100083.03
2022-09-15T02:42:53.785Z,100069.09
2022-09-15T02:43:17.758Z,100075.69
2022-09-15T02:43:45.022Z,100075.59
2022-09-15T02:44:10.599Z,100080.97
2022-09-15T02:44:33.057Z,100082.56
2022-09-15T02:44:55.376Z,100069.72
2022-09-15T02:45:17.008Z,100076.09
2022-09-15T02:45:40.144Z,100063.22
2022-09-15T02:46:02.803Z,100084.06
2022-09-15T02:46:24.572Z,100077.81
2022-09-15T02:46:46.184Z,100075.88
2022-09-15T02:47:08.395Z,100080.63
2022-09-15T02:47:30.231Z,100083.94
2022-09-15T02:47:52.854Z,100070.13
2022-09-15T02:48:14.778Z,100084.06
2022-09-15T02:48:36.393Z,100077.81
2022-09-15T02:48:58.017Z,100083.94
2022-09-15T02:49:20.945Z,100079.31
2022-09-15T02:49:42.506Z,100084.78
2022-09-15T02:50:05.035Z,100084.91
2022-09-15T02:53:05.515Z,100088.59
2022-09-15T02:53:37.518Z,100091.28
2022-09-15T02:54:49.366Z,100087.72
2022-09-15T02:57:38.109Z,100087.66
2022-09-15T02:58:09.601Z,100074.16
2022-09-15T02:59:16.729Z,100088.47
2022-09-15T03:02:31.467Z,100087.41
2022-09-15T03:03:01.175Z,100075.16
2022-09-15T03:03:26.723Z,100090.09
2022-09-15T03:04:11.184Z,100084.84
2022-09-15T03:04:40.287Z,100085.56
2022-09-15T03:11:35.687Z,100094.84
2022-09-15T03:11:57.295Z,100094.75
2022-09-15T03:12:18.884Z,100086.78
2022-09-15T03:12:41.723Z,100100.31
2022-09-15T03:13:04.756Z,100092.06
2022-09-15T03:13:26.871Z,100092.78
2022-09-15T03:13:52.751Z,100090.09
2022-09-15T03:14:14.389Z,100091.72
2022-09-15T03:14:38.267Z,100086.44
2022-09-15T03:14:59.820Z,100096.13
2022-09-15T03:15:23.563Z,100087.19
2022-09-15T03:15:45.140Z,100097.94
2022-09-15T03:16:08.908Z,100091.56
2022-09-15T03:16:34.294Z,100095.88
2022-09-15T03:16:55.885Z,100099.03
2022-09-15T03:17:17.697Z,100090.59
2022-09-15T03:17:41.574Z,100094.25
2022-09-15T03:18:04.359Z,100101.59
2022-09-15T03:18:25.974Z,100091.81
2022-09-15T03:18:48.333Z,100095.72
2022-09-15T03:19:09.914Z,100096.13
2022-09-15T03:19:31.957Z,100097.94
2022-09-15T03:19:54.489Z,100079.69
2022-09-15T03:20:19.972Z,100091.81
2022-09-15T03:20:41.733Z,100102.47
2022-09-15T03:21:05.281Z,100096.22
2022-09-15T03:21:29.258Z,100096.84
2022-09-15T03:21:51.871Z,100099.63
2022-09-15T03:22:13.652Z,100096.22
2022-09-15T03:22:35.659Z,100093.44
2022-09-15T03:22:57.237Z,100094.25
2022-09-15T03:23:18.802Z,100096.44
2022-09-15T03:23:41.908Z,100102.91
2022-09-15T03:24:04.124Z,100087.03
2022-09-15T03:24:25.975Z,100095.81
2022-09-15T03:24:48.969Z,100099.59
2022-09-15T03:25:11.375Z,100100.66
2022-09-15T03:25:33.984Z,100079.75
2022-09-15T03:25:56.020Z,100103.34
2022-09-15T03:26:18.673Z,100100.56
2022-09-15T03:26:40.616Z,100104.22
2022-09-15T03:27:02.452Z,100104.22
2022-09-15T03:27:24.094Z,100099.81
2022-09-15T03:27:46.841Z,100079.22
2022-09-15T03:28:08.600Z,100101.44
2022-09-15T03:28:30.345Z,100102.50
2022-09-15T03:28:53.160Z,100039.09
2022-09-15T03:29:15.279Z,100060.56
2022-09-15T03:29:37.972Z,100099.28
2022-09-15T03:30:00.047Z,100105.66
2022-09-15T03:30:21.641Z,100096.84
2022-09-15T03:30:43.330Z,100099.53
2022-09-15T03:31:07.212Z,100101.25
2022-09-15T03:31:28.921Z,100109.41
2022-09-15T03:31:52.097Z,100100.47
2022-09-15T03:32:13.678Z,100109.31
2022-09-15T03:32:36.841Z,100112.72
2022-09-15T03:32:58.398Z,100109.31
2022-09-15T03:33:20.288Z,100107.59
2022-09-15T03:33:41.912Z,100104.03
2022-09-15T03:34:04.780Z,100093.00
2022-09-15T03:34:26.340Z,100110.28
2022-09-15T03:34:47.971Z,100108.44
2022-09-15T03:35:10.133Z,100100.38
2022-09-15T03:35:31.713Z,100104.91
2022-09-15T03:35:54.372Z,100109.41
2022-09-15T03:36:17.210Z,100103.19
2022-09-15T03:36:38.984Z,100098.91
2022-09-15T03:37:00.520Z,100110.72
2022-09-15T03:37:22.123Z,100108.78
2022-09-15T03:37:44.640Z,100101.69
2022-09-15T03:38:06.504Z,100102.66
2022-09-15T03:38:28.482Z,100108.88
2022-09-15T03:38:50.160Z,100105.34
2022-09-15T03:39:11.975Z,100105.88
2022-09-15T03:39:35.926Z,100098.66
2022-09-15T03:39:57.918Z,100104.78
2022-09-15T03:40:19.565Z,100106.72
2022-09-15T03:40:42.894Z,100100.38
2022-09-15T03:41:08.267Z,100104.66
2022-09-15T03:41:29.904Z,100102.97
2022-09-15T03:41:51.515Z,100104.66
2022-09-15T03:42:14.048Z,100102.97
2022-09-15T03:42:37.193Z,100103.06
2022-09-15T03:43:08.740Z,100097.81
2022-09-15T03:43:34.113Z,100102.22
2022-09-15T03:43:59.432Z,100109.41
2022-09-15T03:44:24.903Z,100106.63
2022-09-15T03:44:48.740Z,100098.56
2022-09-15T03:45:10.296Z,100105.75
2022-09-15T03:45:37.905Z,100098.66
2022-09-15T03:46:04.528Z,100091.91
2022-09-15T03:46:28.687Z,100105.13
2022-09-15T03:46:53.873Z,100091.81
2022-09-15T03:47:17.242Z,100100.59
2022-09-15T03:47:40.027Z,100091.69
2022-09-15T03:48:05.715Z,100103.41
2022-09-15T03:48:30.679Z,100099.75
2022-09-15T03:48:55.401Z,100088.34
2022-09-15T03:49:21.607Z,100094.25
2022-09-15T03:49:53.415Z,100099.75
2022-09-15T03:50:18.955Z,100088.88
2022-09-15T03:50:43.380Z,100096.06
2022-09-15T03:51:09.087Z,100099.63
2022-09-15T03:51:35.914Z,100095.00
2022-09-15T03:52:04.968Z,100101.44
2022-09-15T03:52:32.308Z,100101.59
2022-09-15T04:03:08.431Z,100081.75
2022-09-15T04:03:30.946Z,100091.44
2022-09-15T04:03:53.663Z,100078.97
2022-09-15T04:04:15.271Z,100086.16
2022-09-15T04:04:38.332Z,100080.78
2022-09-15T04:04:59.971Z,100080.16
2022-09-15T04:05:21.576Z,100074.16
2022-09-15T04:05:43.249Z,100088.75
2022-09-15T04:06:06.060Z,100084.22
2022-09-15T04:06:27.779Z,100079.91
2022-09-15T04:06:49.367Z,100085.91
2022-09-15T04:07:11.019Z,100085.91
2022-09-15T04:07:34.220Z,100088.59
2022-09-15T04:07:55.795Z,100088.84
2022-09-15T04:08:17.405Z,100081.88
2022-09-15T04:08:39.329Z,100090.75
2022-09-15T04:09:01.956Z,100086.06
2022-09-15T04:09:24.707Z,100083.38
2022-09-15T04:09:46.281Z,100078.34
2022-09-15T04:10:09.121Z,100091.28
2022-09-15T04:10:34.873Z,100088.50
2022-09-15T04:10:57.488Z,100093.00
2022-09-15T04:11:21.492Z,100086.16
2022-09-15T04:11:43.035Z,100096.47
2022-09-15T04:12:05.146Z,100097.44
2022-09-15T04:12:27.799Z,100100.97
2022-09-15T04:12:49.400Z,100094.63
2022-09-15T04:13:18.673Z,100092.91
2022-09-15T04:13:43.976Z,100099.16
2022-09-15T04:14:14.383Z,100100.97
2022-09-15T04:14:40.359Z,100092.91
2022-09-15T04:15:04.977Z,100084.34
2022-09-15T04:15:28.042Z,100101.84
2022-09-15T04:16:05.015Z,100090.56
2022-09-15T04:16:36.359Z,100094.75
2022-09-15T04:16:59.378Z,100081.97
2022-09-15T04:17:33.307Z,100104.84
2022-09-15T04:17:58.177Z,100103.03
2022-09-15T04:18:24.303Z,100101.31
2022-09-15T04:19:02.192Z,100104.00
2022-09-15T04:19:29.481Z,100111.19
2022-09-15T04:19:51.178Z,100102.38
2022-09-15T04:20:12.886Z,100112.91
2022-09-15T04:20:35.444Z,100107.66
2022-09-15T04:20:59.462Z,100120.03
2022-09-15T04:21:23.248Z,100116.56
2022-09-15T04:21:47.277Z,100117.44
2022-09-15T04:22:08.909Z,100113.13
2022-09-15T04:22:32.317Z,100115.72
2022-09-15T04:22:53.915Z,100113.13
2022-09-15T04:23:15.575Z,100116.66
2022-09-15T04:23:38.714Z,100116.66
2022-09-15T04:24:01.292Z,100121.31
2022-09-15T04:24:23.669Z,100118.63
2022-09-15T04:24:48.534Z,100117.63
2022-09-15T04:25:13.520Z,100116.91
2022-09-15T04:25:58.686Z,100109.81
2022-09-15T04:26:26.057Z,100121.94
2022-09-15T04:26:52.952Z,100122.03
2022-09-15T04:27:15.035Z,100120.31
2022-09-15T04:27:39.762Z,100114.94
2022-09-15T04:28:03.016Z,100112.25
2022-09-15T04:28:28.483Z,100102.19
2022-09-15T04:29:31.817Z,100118.63
2022-09-15T04:29:58.130Z,100111.63
2022-09-15T04:30:21.722Z,100109.06
2022-09-15T04:30:43.900Z,100115.94
2022-09-15T04:31:12.677Z,100114.94
2022-09-15T04:31:40.150Z,100113.97
2022-09-15T04:32:04.205Z,100112.06
2022-09-15T04:32:29.070Z,100109.28
2022-09-15T04:32:56.297Z,100106.44
2022-09-15T04:33:23.544Z,100108.28
2022-09-15T04:33:59.146Z,100113.78
2022-09-15T04:34:24.055Z,100118.91
2022-09-15T04:34:46.686Z,100114.41
2022-09-15T04:35:10.161Z,100115.47
2022-09-15T04:35:31.726Z,100113.97
2022-09-15T04:35:58.384Z,100112.91
2022-09-15T04:36:22.935Z,100091.66
2022-09-15T04:36:45.180Z,100114.75
2022-09-15T04:37:07.418Z,100104.53
2022-09-15T04:37:28.989Z,100098.75
2022-09-15T04:37:51.545Z,100113.97
2022-09-15T04:38:13.222Z,100120.22
2022-09-15T04:38:35.551Z,100115.47
2022-09-15T04:38:58.262Z,100113.88
2022-09-15T04:39:20.995Z,100105.72
2022-09-15T04:39:42.545Z,100118.16
2022-09-15T04:40:04.737Z,100111.09
2022-09-15T04:40:26.370Z,100108.59
2022-09-15T04:40:49.155Z,100115.72
2022-09-15T04:41:11.371Z,100098.75
2022-09-15T04:41:33.627Z,100119.25
2022-09-15T04:41:55.218Z,100121.06
2022-09-15T04:42:17.847Z,100095.13
2022-09-15T04:42:39.396Z,100118.50
2022-09-15T04:43:01.119Z,100096.28
2022-09-15T04:43:22.837Z,100113.97
2022-09-15T04:43:45.847Z,100122.19
2022-09-15T04:44:07.604Z,100112.72
2022-09-15T04:44:30.113Z,100113.34
2022-09-15T04:44:57.488Z,100115.94
2022-09-15T04:45:21.064Z,100111.44
2022-09-15T04:45:46.539Z,100119.50
2022-09-15T04:46:11.121Z,100113.25
2022-09-15T04:46:35.687Z,100112.25
2022-09-15T04:47:02.314Z,100112.50
2022-09-15T04:47:30.155Z,100121.31
2022-09-15T04:47:58.632Z,100121.31
2022-09-15T04:48:26.564Z,100119.59
2022-09-15T04:48:51.983Z,100120.31
2022-09-15T04:49:32.567Z,100125.59
2022-09-15T04:49:57.717Z,100114.13
2022-09-15T04:50:23.902Z,100124.72
2022-09-15T04:51:09.963Z,100113.03
2022-09-15T04:51:35.691Z,100107.75
2022-09-15T04:51:58.015Z,100117.63
2022-09-15T04:52:24.172Z,100118.63
2022-09-15T04:52:46.611Z,100111.09
2022-09-15T04:53:12.384Z,100104.34
2022-09-15T04:53:36.637Z,100118.91
2022-09-15T04:53:59.497Z,100108.16
2022-09-15T04:54:27.941Z,100111.63
2022-09-15T04:54:53.849Z,100108.06
2022-09-15T04:55:17.861Z,100111.81
2022-09-15T04:55:39.639Z,100115.38
2022-09-15T04:56:03.371Z,100110.88
2022-09-15T04:56:26.899Z,100112.78
2022-09-15T04:56:49.238Z,100109.28
2022-09-15T04:57:11.160Z,100109.28
2022-09-15T04:57:40.939Z,100113.53
2022-09-15T04:58:04.212Z,100115.38
2022-09-15T04:58:26.943Z,100110.09
2022-09-15T04:58:50.389Z,100121.72
2022-09-15T04:59:14.646Z,100113.53
2022-09-15T04:59:36.495Z,100107.22
2022-09-15T04:59:59.036Z,100112.47
2022-09-15T05:00:21.088Z,100111.28
2022-09-15T05:00:43.589Z,100109.22
2022-09-15T05:01:09.858Z,100109.31
2022-09-15T05:01:35.497Z,100109.56
2022-09-15T05:01:57.276Z,100108.25
2022-09-15T05:02:19.145Z,100101.78
2022-09-15T05:02:40.958Z,100113.31
2022-09-15T05:03:03.841Z,100111.47
2022-09-15T05:03:25.657Z,100113.06
2022-09-15T05:03:47.856Z,100113.94
2022-09-15T05:04:11.084Z,100100.38
2022-09-15T05:04:34.845Z,100119.09
2022-09-15T05:04:56.449Z,100107.47
2022-09-15T05:05:18.049Z,100114.56
2022-09-15T05:07:48.444Z,100115.53
2022-09-15T05:08:21.137Z,100101.94
2022-09-15T05:08:43.730Z,100115.66
2022-09-15T05:09:10.476Z,100117.38
2022-09-15T05:09:33.346Z,100110.50
2022-09-15T05:09:55.466Z,100104.72
2022-09-15T05:10:17.521Z,100112.19
2022-09-15T05:10:40.175Z,100107.28
2022-09-15T05:11:03.132Z,100107.06
2022-09-15T05:11:25.872Z,100106.97
2022-09-15T05:11:50.414Z,100108.88
2022-09-15T05:12:12.003Z,100107.91
2022-09-15T05:12:33.716Z,100104.38
2022-09-15T05:12:55.284Z,100107.91
2022-09-15T05:13:16.878Z,100106.19
2022-09-15T05:13:41.091Z,100110.50
2022-09-15T05:14:03.280Z,100111.25
2022-09-15T05:14:24.873Z,100105.34
2022-09-15T05:14:47.497Z,100111.25
2022-09-15T05:15:10.892Z,100113.19
2022-09-15T05:15:33.356Z,100116.72
2022-09-15T05:15:55.273Z,100117.72
2022-09-15T05:16:19.720Z,100117.72
2022-09-15T05:16:42.438Z,100119.53
2022-09-15T05:17:04.260Z,100115.03
2022-09-15T05:17:26.853Z,100115.22
2022-09-15T05:17:49.741Z,100116.09
2022-09-15T05:18:12.236Z,100118.56
2022-09-15T05:18:35.104Z,100113.31
2022-09-15T05:18:58.436Z,100106.53
2022-09-15T05:19:21.530Z,100104.28
2022-09-15T05:19:45.358Z,100117.72
2022-09-15T05:20:07.884Z,100103.09
2022-09-15T05:20:29.832Z,100121.25
2022-09-15T05:20:58.686Z,100119.53
2022-09-15T05:21:23.091Z,100127.47
2022-09-15T05:21:44.688Z,100123.94
2022-09-15T05:22:06.266Z,100127.38
2022-09-15T05:22:29.541Z,100120.16
2022-09-15T05:22:51.106Z,100125.63
2022-09-15T05:23:13.774Z,100131.00
2022-09-15T05:23:37.004Z,100123.19
2022-09-15T05:23:59.620Z,100127.47
2022-09-15T05:24:21.362Z,100119.31
2022-09-15T05:24:42.948Z,100127.38
2022-09-15T05:25:05.828Z,100098.06
2022-09-15T05:25:28.301Z,100126.63
2022-09-15T05:25:55.949Z,100117.56
2022-09-15T05:26:19.717Z,100119.31
2022-09-15T05:26:41.758Z,100125.44
2022-09-15T05:27:04.691Z,100122.50
2022-09-15T05:27:26.211Z,100125.00
2022-09-15T05:27:51.834Z,100118.84
2022-09-15T05:28:15.073Z,100118.00
2022-09-15T05:28:53.969Z,100125.97
2022-09-15T05:29:17.035Z,100127.88
2022-09-15T05:29:38.716Z,100124.47
2022-09-15T05:30:35.170Z,100124.34
2022-09-15T05:30:52.439Z,100127.03
2022-09-15T05:31:18.149Z,100122.50
2022-09-15T05:31:40.925Z,100127.88
2022-09-15T05:32:03.033Z,100118.22
2022-09-15T05:32:24.905Z,100123.38
2022-09-15T05:32:46.816Z,100127.69
2022-09-15T05:33:12.835Z,100119.63
2022-09-15T05:33:35.977Z,100127.69
2022-09-15T05:34:08.860Z,100130.25
2022-09-15T05:34:36.897Z,100129.50
2022-09-15T05:34:59.175Z,100126.81
2022-09-15T05:35:25.564Z,100124.22
2022-09-15T05:35:51.605Z,100121.31
2022-09-15T05:36:16.645Z,100126.47
2022-09-15T05:36:38.605Z,100122.06
2022-09-15T05:37:00.584Z,100127.22
2022-09-15T05:37:24.294Z,100125.28
2022-09-15T05:37:47.243Z,100126.00
2022-09-15T05:38:08.870Z,100129.44
2022-09-15T05:38:31.913Z,100121.38
2022-09-15T05:38:55.464Z,100123.97
2022-09-15T05:39:18.228Z,100126.53
2022-09-15T05:39:40.940Z,100126.53
2022-09-15T05:40:08.131Z,100124.59
2022-09-15T05:40:30.161Z,100120.06
2022-09-15T05:40:53.199Z,100124.84
2022-09-15T05:41:17.513Z,100125.56
2022-09-15T05:41:41.561Z,100131.91
2022-09-15T05:42:04.321Z,100119.91
2022-09-15T05:42:25.969Z,100130.31
2022-09-15T05:42:47.520Z,100118.59
2022-09-15T05:43:09.107Z,100122.88
2022-09-15T05:43:33.896Z,100125.56
2022-09-15T05:43:56.984Z,100129.22
2022-09-15T05:44:18.677Z,100126.31
2022-09-15T05:44:40.261Z,100124.59
2022-09-15T05:45:03.127Z,100120.94
2022-09-15T05:45:24.944Z,100122.66
2022-09-15T05:45:54.196Z,100126.22
2022-09-15T05:46:17.055Z,100127.03
2022-09-15T05:46:39.700Z,100121.81
2022-09-15T05:47:01.444Z,100124.59
2022-09-15T05:47:23.688Z,100125.47
2022-09-15T05:47:45.315Z,100128.16
2022-09-15T05:48:07.085Z,100121.91
2022-09-15T05:48:30.088Z,100127.94
2022-09-15T05:48:54.020Z,100123.44
2022-09-15T05:49:15.669Z,100129.56
2022-09-15T05:49:39.552Z,100134.06
2022-09-15T05:50:01.142Z,100133.22
2022-09-15T05:50:23.008Z,100132.25
2022-09-15T05:50:49.792Z,100122.75
2022-09-15T05:51:12.956Z,100128.91
2022-09-15T05:51:34.549Z,100134.81
2022-09-15T05:51:56.146Z,100138.34
2022-09-15T05:52:17.681Z,100136.66
2022-09-15T05:52:41.502Z,100132.97
2022-09-15T05:53:03.589Z,100128.69
2022-09-15T05:53:26.170Z,100132.13
2022-09-15T05:53:47.834Z,100132.97